Time;durP1;ratioP1;P1;durP2;ratioP2;P2;SDS_P1;SDS_P2;PMS_P1;PMS_P2;Temp;Humidity;BMP_temperature;BMP_pressure;BME280_temperature;BME280_humidity;BME280_pressure;Samples;Min_cycle;Max_cycle;Signal;HPM_P1;HPM_P2
2023/08/10 00:01:31;;;;;;;6.18;2.90;;;;;;;;;;5030811;28;20029;-77
2023/08/10 00:03:57;;;;;;;3.97;2.75;;;;;;;;;;5030608;28;20030;-75
2023/08/10 00:06:22;;;;;;;6.32;2.53;;;;;;;;;;5030768;28;20167;-73
2023/08/10 00:08:50;;;;;;;4.82;2.85;;;;;;;;;;5030177;28;20109;-73
2023/08/10 00:11:15;;;;;;;5.28;2.33;;;;;;;;;;5029406;28;20358;-74
2023/08/10 00:13:41;;;;;;;7.85;2.75;;;;;;;;;;5030382;28;20040;-74
2023/08/10 00:16:07;;;;;;;4.22;2.20;;;;;;;;;;5029136;28;20031;-75
2023/08/10 00:18:33;;;;;;;4.55;2.45;;;;;;;;;;5030306;28;20025;-77
2023/08/10 00:20:59;;;;;;;3.45;2.28;;;;;;;;;;5030793;28;20509;-74
2023/08/10 00:23:25;;;;;;;6.72;2.90;;;;;;;;;;5034957;28;20040;-75
2023/08/10 00:25:51;;;;;;;4.60;2.40;;;;;;;;;;5033968;28;20049;-74
2023/08/10 00:28:16;;;;;;;2.30;2.03;;;;;;;;;;5034375;28;20098;-74
2023/08/10 00:30:42;;;;;;;4.15;2.55;;;;;;;;;;5032739;28;20468;-72
2023/08/10 00:33:07;;;;;;;2.75;2.22;;;;;;;;;;5045916;28;20052;-74
2023/08/10 00:35:33;;;;;;;3.25;2.08;;;;;;;;;;5045893;28;20068;-73
2023/08/10 00:37:58;;;;;;;6.68;2.50;;;;;;;;;;5030468;28;20057;-74
2023/08/10 00:40:25;;;;;;;8.88;3.63;;;;;;;;;;5029178;28;20029;-74
2023/08/10 00:42:51;;;;;;;4.55;2.72;;;;;;;;;;5031592;28;20494;-74
2023/08/10 00:45:16;;;;;;;4.93;2.65;;;;;;;;;;5031239;28;20029;-73
2023/08/10 00:47:42;;;;;;;4.50;2.75;;;;;;;;;;5029586;28;20359;-74
2023/08/10 00:50:09;;;;;;;4.88;2.75;;;;;;;;;;5029784;28;20029;-74
2023/08/10 00:52:35;;;;;;;4.47;2.50;;;;;;;;;;5046257;28;20029;-76
2023/08/10 00:55:04;;;;;;;3.88;2.45;;;;;;;;;;5030149;28;20029;-73
2023/08/10 00:57:30;;;;;;;5.32;2.45;;;;;;;;;;5030057;28;20083;-74
2023/08/10 00:59:55;;;;;;;3.22;2.30;;;;;;;;;;5046388;28;20120;-74
2023/08/10 01:02:21;;;;;;;4.00;2.60;;;;;;;;;;5029637;28;20033;-74
2023/08/10 01:04:47;;;;;;;5.43;2.72;;;;;;;;;;5028623;28;20032;-74
2023/08/10 01:07:40;;;;;;;7.22;2.42;;;;;;;;;;5037989;28;20033;-74
2023/08/10 01:10:33;;;;;;;4.32;2.55;;;;;;;;;;5009038;28;20034;-74
2023/08/10 01:13:48;;;;;;;4.00;2.20;;;;;;;;;;5009173;28;20474;-74
2023/08/10 01:16:15;;;;;;;2.85;2.40;;;;;;;;;;4987726;28;20046;-74
2023/08/10 01:18:41;;;;;;;5.78;2.33;;;;;;;;;;5010656;28;20077;-74
2023/08/10 01:21:26;;;;;;;6.30;3.70;;;;;;;;;;5010760;28;20096;-74
2023/08/10 01:23:54;;;;;;;4.10;2.70;;;;;;;;;;5017850;28;20033;-75
2023/08/10 01:26:21;;;;;;;6.80;2.88;;;;;;;;;;5029709;28;20038;-72
2023/08/10 01:28:47;;;;;;;8.90;3.10;;;;;;;;;;5027786;28;20091;-74
2023/08/10 01:31:14;;;;;;;5.78;2.38;;;;;;;;;;5044812;28;20442;-73
2023/08/10 01:33:39;;;;;;;7.20;2.60;;;;;;;;;;5029468;28;20033;-74
2023/08/10 01:36:05;;;;;;;11.70;2.40;;;;;;;;;;5027975;28;20064;-73
2023/08/10 01:38:30;;;;;;;4.63;2.47;;;;;;;;;;5027973;28;20040;-74
2023/08/10 01:40:56;;;;;;;5.18;2.50;;;;;;;;;;5027824;28;20029;-75
2023/08/10 01:43:21;;;;;;;2.80;2.30;;;;;;;;;;5029609;28;20056;-74
2023/08/10 01:45:51;;;;;;;4.05;2.33;;;;;;;;;;5029442;28;20029;-74
2023/08/10 01:48:38;;;;;;;3.67;2.45;;;;;;;;;;5028858;28;20030;-74
2023/08/10 01:51:07;;;;;;;4.75;2.30;;;;;;;;;;5028981;28;20103;-74
2023/08/10 01:53:35;;;;;;;4.70;2.13;;;;;;;;;;5030304;28;20021;-74
2023/08/10 01:56:02;;;;;;;2.53;1.88;;;;;;;;;;5032175;28;20074;-75
2023/08/10 01:58:27;;;;;;;3.38;2.00;;;;;;;;;;5035049;28;20105;-75
2023/08/10 02:00:53;;;;;;;2.30;1.95;;;;;;;;;;5041312;28;20092;-74
2023/08/10 02:03:19;;;;;;;2.25;2.05;;;;;;;;;;5042005;28;20033;-74
2023/08/10 02:05:44;;;;;;;4.57;2.15;;;;;;;;;;5037317;28;20049;-74
2023/08/10 02:08:10;;;;;;;4.88;2.13;;;;;;;;;;5037117;28;20040;-74
2023/08/10 02:10:37;;;;;;;4.70;2.53;;;;;;;;;;5036813;28;20111;-75
2023/08/10 02:13:02;;;;;;;5.15;2.53;;;;;;;;;;5034890;28;20033;-75
2023/08/10 02:15:28;;;;;;;7.88;2.90;;;;;;;;;;5033717;28;20029;-75
2023/08/10 02:17:54;;;;;;;4.47;2.60;;;;;;;;;;5048629;28;20417;-75
2023/08/10 02:20:20;;;;;;;3.45;2.22;;;;;;;;;;5034252;28;20030;-74
2023/08/10 02:22:51;;;;;;;4.07;2.10;;;;;;;;;;5049276;28;20021;-74
2023/08/10 02:25:18;;;;;;;7.28;2.20;;;;;;;;;;5033456;28;20084;-75
2023/08/10 02:27:46;;;;;;;2.40;2.05;;;;;;;;;;5032696;28;20037;-74
2023/08/10 02:30:13;;;;;;;3.38;2.25;;;;;;;;;;5033949;28;20120;-74
2023/08/10 02:32:39;;;;;;;3.75;2.40;;;;;;;;;;5033783;28;20021;-74
2023/08/10 02:35:04;;;;;;;6.45;2.70;;;;;;;;;;5035453;28;20033;-73
2023/08/10 02:37:30;;;;;;;3.55;2.20;;;;;;;;;;5052716;28;20025;-76
2023/08/10 02:39:56;;;;;;;6.07;2.72;;;;;;;;;;5034594;28;20434;-73
2023/08/10 02:42:21;;;;;;;4.32;2.10;;;;;;;;;;5034210;28;20457;-75
2023/08/10 02:44:49;;;;;;;2.92;2.20;;;;;;;;;;5033520;28;20037;-74
2023/08/10 02:47:15;;;;;;;4.00;2.25;;;;;;;;;;5048425;28;20040;-74
2023/08/10 02:49:40;;;;;;;10.32;2.35;;;;;;;;;;5032592;28;20033;-75
2023/08/10 02:52:06;;;;;;;3.15;2.35;;;;;;;;;;5032462;28;20044;-75
2023/08/10 02:54:32;;;;;;;3.35;2.38;;;;;;;;;;5031024;28;20386;-76
2023/08/10 02:56:58;;;;;;;5.40;2.05;;;;;;;;;;5033034;28;20044;-75
2023/08/10 02:59:23;;;;;;;4.03;2.45;;;;;;;;;;5047630;28;20493;-75
2023/08/10 03:01:49;;;;;;;2.15;1.95;;;;;;;;;;5030720;28;20426;-75
2023/08/10 03:04:14;;;;;;;2.78;2.25;;;;;;;;;;5032577;28;20036;-75
2023/08/10 03:06:40;;;;;;;5.97;2.40;;;;;;;;;;5031455;28;20036;-74
2023/08/10 03:09:06;;;;;;;11.80;3.47;;;;;;;;;;5030269;28;20788;-75
2023/08/10 03:11:32;;;;;;;4.40;2.67;;;;;;;;;;5030180;28;20034;-74
2023/08/10 03:13:58;;;;;;;6.30;2.83;;;;;;;;;;5029983;28;20549;-74
2023/08/10 03:16:23;;;;;;;6.75;2.15;;;;;;;;;;5030535;28;20064;-79
2023/08/10 03:18:49;;;;;;;4.57;2.42;;;;;;;;;;5047063;28;20030;-79
2023/08/10 03:21:15;;;;;;;2.10;1.90;;;;;;;;;;5047962;28;20527;-79
2023/08/10 03:23:42;;;;;;;4.97;2.28;;;;;;;;;;5032946;28;20048;-79
2023/08/10 03:26:07;;;;;;;3.92;3.05;;;;;;;;;;5031386;28;20398;-79
2023/08/10 03:28:33;;;;;;;5.25;2.22;;;;;;;;;;5032726;28;20029;-80
2023/08/10 03:30:58;;;;;;;4.63;2.30;;;;;;;;;;5033972;28;20101;-79
2023/08/10 03:33:24;;;;;;;2.28;2.03;;;;;;;;;;5036581;28;20037;-78
2023/08/10 03:35:50;;;;;;;10.85;3.05;;;;;;;;;;5055852;28;20037;-77
2023/08/10 03:38:16;;;;;;;5.50;2.55;;;;;;;;;;5041877;28;20021;-80
2023/08/10 03:40:41;;;;;;;8.10;2.85;;;;;;;;;;5045813;28;20014;-79
2023/08/10 03:43:07;;;;;;;4.22;2.67;;;;;;;;;;5029551;28;20025;-79
2023/08/10 03:45:32;;;;;;;3.40;2.30;;;;;;;;;;5052165;28;20013;-78
2023/08/10 03:47:58;;;;;;;4.13;2.67;;;;;;;;;;5051502;28;20085;-78
2023/08/10 03:50:24;;;;;;;5.22;2.90;;;;;;;;;;5043038;28;20035;-77
2023/08/10 03:52:50;;;;;;;3.58;2.40;;;;;;;;;;5042741;28;20033;-77
2023/08/10 03:55:15;;;;;;;7.97;2.88;;;;;;;;;;5038999;28;20083;-79
2023/08/10 03:57:41;;;;;;;2.78;2.15;;;;;;;;;;5031871;28;20034;-78
2023/08/10 04:00:08;;;;;;;6.45;2.72;;;;;;;;;;5046937;28;20025;-79
2023/08/10 04:02:34;;;;;;;3.75;2.70;;;;;;;;;;5013706;28;20527;-79
2023/08/10 04:05:05;;;;;;;4.22;2.47;;;;;;;;;;5031524;28;20029;-78
2023/08/10 04:07:33;;;;;;;10.77;2.92;;;;;;;;;;5029628;28;20131;-78
2023/08/10 04:10:00;;;;;;;4.03;2.65;;;;;;;;;;5030269;28;20063;-80
2023/08/10 04:12:26;;;;;;;5.72;2.85;;;;;;;;;;5029818;28;20382;-79
2023/08/10 04:14:51;;;;;;;4.57;2.58;;;;;;;;;;5029529;28;20029;-80
2023/08/10 04:17:18;;;;;;;10.20;2.90;;;;;;;;;;5030655;28;20123;-79
2023/08/10 04:19:43;;;;;;;3.65;2.53;;;;;;;;;;5030157;28;20091;-80
2023/08/10 04:22:09;;;;;;;5.88;3.55;;;;;;;;;;5029777;28;20072;-80
2023/08/10 04:24:35;;;;;;;4.35;2.72;;;;;;;;;;5030500;28;20053;-79
2023/08/10 04:27:00;;;;;;;4.53;2.70;;;;;;;;;;5046278;28;20043;-80
2023/08/10 04:29:27;;;;;;;4.28;2.20;;;;;;;;;;5045786;28;20025;-79
2023/08/10 04:31:53;;;;;;;4.18;2.90;;;;;;;;;;5045688;28;20021;-78
2023/08/10 04:34:20;;;;;;;2.83;2.50;;;;;;;;;;5029266;28;20480;-79
2023/08/10 04:36:46;;;;;;;7.75;3.20;;;;;;;;;;5029947;28;20029;-80
2023/08/10 04:39:12;;;;;;;3.85;2.55;;;;;;;;;;5031287;28;20017;-79
2023/08/10 04:41:38;;;;;;;7.25;3.38;;;;;;;;;;5029434;28;20043;-77
2023/08/10 04:44:03;;;;;;;5.55;3.25;;;;;;;;;;5029205;28;20045;-79
2023/08/10 04:46:29;;;;;;;4.80;2.45;;;;;;;;;;5029201;28;20430;-78
2023/08/10 04:48:54;;;;;;;10.10;3.60;;;;;;;;;;5028726;28;20446;-78
2023/08/10 04:51:20;;;;;;;5.15;3.10;;;;;;;;;;5013229;28;20036;-79
2023/08/10 04:53:46;;;;;;;3.20;2.75;;;;;;;;;;5045974;28;20036;-79
2023/08/10 04:56:11;;;;;;;6.38;3.58;;;;;;;;;;5047008;28;20030;-79
2023/08/10 04:58:37;;;;;;;6.05;2.75;;;;;;;;;;5030396;28;20024;-81
2023/08/10 05:01:02;;;;;;;11.32;3.22;;;;;;;;;;5047451;28;20120;-78
2023/08/10 05:03:28;;;;;;;5.57;3.25;;;;;;;;;;5049258;28;20104;-78
2023/08/10 05:05:53;;;;;;;6.32;2.95;;;;;;;;;;5047110;28;20029;-75
2023/08/10 05:08:21;;;;;;;3.88;2.38;;;;;;;;;;5046372;28;20036;-79
2023/08/10 05:10:47;;;;;;;5.85;2.30;;;;;;;;;;5045310;28;20010;-77
2023/08/10 05:13:13;;;;;;;5.97;3.15;;;;;;;;;;5059525;28;20074;-79
2023/08/10 05:15:39;;;;;;;4.45;2.85;;;;;;;;;;5031980;28;20038;-78
2023/08/10 05:18:05;;;;;;;4.85;2.38;;;;;;;;;;5030333;28;20120;-79
2023/08/10 05:20:31;;;;;;;3.15;2.72;;;;;;;;;;5031389;28;20037;-79
2023/08/10 05:22:57;;;;;;;14.25;4.03;;;;;;;;;;5030858;28;20393;-79
2023/08/10 05:25:22;;;;;;;6.13;2.42;;;;;;;;;;5031096;28;20053;-79
2023/08/10 05:27:48;;;;;;;5.80;3.72;;;;;;;;;;5029999;28;20038;-81
2023/08/10 05:30:14;;;;;;;3.58;2.78;;;;;;;;;;5033971;28;20041;-81
2023/08/10 05:32:40;;;;;;;7.07;5.65;;;;;;;;;;5015565;28;20049;-81
2023/08/10 05:35:08;;;;;;;3.97;2.55;;;;;;;;;;5022685;28;20482;-78
2023/08/10 05:37:34;;;;;;;5.18;2.72;;;;;;;;;;5012546;28;20722;-77
2023/08/10 05:40:01;;;;;;;4.53;2.75;;;;;;;;;;5026377;28;20375;-77
2023/08/10 05:42:28;;;;;;;5.15;2.83;;;;;;;;;;5025605;28;20405;-77
2023/08/10 05:44:55;;;;;;;6.57;3.03;;;;;;;;;;4990541;28;20398;-80
2023/08/10 05:47:20;;;;;;;3.92;2.72;;;;;;;;;;5010038;28;20539;-76
2023/08/10 05:49:48;;;;;;;8.10;3.25;;;;;;;;;;5025494;28;20037;-77
2023/08/10 05:52:14;;;;;;;7.38;3.22;;;;;;;;;;5025901;28;20052;-81
2023/08/10 05:54:39;;;;;;;5.55;2.90;;;;;;;;;;5013652;28;20116;-80
2023/08/10 05:57:05;;;;;;;4.53;2.85;;;;;;;;;;5030721;28;20036;-75
2023/08/10 05:59:31;;;;;;;4.88;3.25;;;;;;;;;;5030796;28;20577;-75
2023/08/10 06:01:57;;;;;;;5.05;2.83;;;;;;;;;;5012594;28;20394;-75
2023/08/10 06:04:23;;;;;;;7.18;2.63;;;;;;;;;;5025802;28;20034;-76
2023/08/10 06:06:49;;;;;;;4.45;2.33;;;;;;;;;;5021897;28;20083;-77
2023/08/10 06:09:16;;;;;;;3.67;2.53;;;;;;;;;;4993600;28;20034;-77
2023/08/10 06:11:42;;;;;;;4.63;2.45;;;;;;;;;;5005097;28;20033;-76
2023/08/10 06:14:08;;;;;;;4.05;2.55;;;;;;;;;;5020975;28;20679;-77
2023/08/10 06:16:35;;;;;;;4.28;2.80;;;;;;;;;;5022988;28;20482;-76
2023/08/10 06:19:00;;;;;;;6.28;2.47;;;;;;;;;;5049452;28;20439;-76
2023/08/10 06:21:27;;;;;;;10.48;3.10;;;;;;;;;;5030134;28;20075;-77
2023/08/10 06:23:53;;;;;;;6.00;2.38;;;;;;;;;;5035271;28;20513;-76
2023/08/10 06:26:18;;;;;;;6.07;2.70;;;;;;;;;;5020625;28;20030;-76
2023/08/10 06:28:44;;;;;;;7.20;2.97;;;;;;;;;;5009078;28;20037;-77
2023/08/10 06:31:10;;;;;;;9.27;2.97;;;;;;;;;;5024210;28;20034;-79
2023/08/10 06:33:36;;;;;;;9.77;3.03;;;;;;;;;;5025760;28;20119;-75
2023/08/10 06:36:03;;;;;;;9.38;2.28;;;;;;;;;;5012993;28;20049;-74
2023/08/10 06:38:29;;;;;;;3.72;2.47;;;;;;;;;;5013392;28;20035;-75
2023/08/10 06:40:55;;;;;;;2.85;2.40;;;;;;;;;;5015211;28;20377;-75
2023/08/10 06:43:21;;;;;;;7.43;2.15;;;;;;;;;;5015708;28;20068;-74
2023/08/10 06:45:47;;;;;;;2.95;2.40;;;;;;;;;;5039770;28;20053;-76
2023/08/10 06:48:12;;;;;;;6.07;2.08;;;;;;;;;;5012557;28;20484;-75
2023/08/10 06:50:39;;;;;;;5.03;2.33;;;;;;;;;;5011151;28;20034;-75
2023/08/10 06:53:05;;;;;;;6.20;2.58;;;;;;;;;;5025206;28;20430;-75
2023/08/10 06:55:33;;;;;;;5.63;2.80;;;;;;;;;;5019627;28;20030;-75
2023/08/10 06:57:59;;;;;;;3.78;2.53;;;;;;;;;;5017734;28;20083;-76
2023/08/10 07:00:25;;;;;;;5.00;2.30;;;;;;;;;;5021320;28;20037;-74
2023/08/10 07:02:56;;;;;;;4.88;2.10;;;;;;;;;;5010966;28;20547;-76
2023/08/10 07:05:31;;;;;;;5.30;2.00;;;;;;;;;;5005915;28;20040;-77
2023/08/10 07:07:57;;;;;;;7.88;2.47;;;;;;;;;;5006402;28;20032;-75
2023/08/10 07:10:25;;;;;;;8.07;2.83;;;;;;;;;;5010196;28;20026;-75
2023/08/10 07:12:52;;;;;;;3.38;2.30;;;;;;;;;;5011706;28;20033;-77
2023/08/10 07:15:17;;;;;;;8.43;3.55;;;;;;;;;;5031128;28;20041;-74
2023/08/10 07:17:43;;;;;;;4.65;2.65;;;;;;;;;;5015466;28;20045;-75
2023/08/10 07:20:10;;;;;;;5.15;2.13;;;;;;;;;;5004433;28;20095;-77
2023/08/10 07:22:36;;;;;;;2.67;1.88;;;;;;;;;;5006926;28;20053;-77
2023/08/10 07:25:05;;;;;;;4.30;2.15;;;;;;;;;;5007702;28;20149;-75
2023/08/10 07:27:33;;;;;;;4.85;2.33;;;;;;;;;;5012331;28;20025;-76
2023/08/10 07:29:59;;;;;;;7.38;2.70;;;;;;;;;;5009702;28;20054;-74
2023/08/10 07:32:28;;;;;;;7.05;2.25;;;;;;;;;;5017089;28;20044;-76
2023/08/10 07:34:54;;;;;;;5.38;2.10;;;;;;;;;;5027235;28;20095;-75
2023/08/10 07:37:20;;;;;;;4.60;2.40;;;;;;;;;;5012691;28;20041;-75
2023/08/10 07:39:47;;;;;;;4.72;1.95;;;;;;;;;;5010560;28;20753;-75
2023/08/10 07:42:13;;;;;;;3.35;2.10;;;;;;;;;;5006839;28;20120;-74
2023/08/10 07:44:40;;;;;;;3.88;1.42;;;;;;;;;;5002042;28;20037;-74
2023/08/10 07:47:08;;;;;;;4.55;1.88;;;;;;;;;;5026373;28;20038;-75
2023/08/10 07:49:33;;;;;;;5.78;2.22;;;;;;;;;;4994492;28;20033;-76
2023/08/10 07:51:59;;;;;;;1.70;1.50;;;;;;;;;;5005102;28;20037;-77
2023/08/10 07:54:26;;;;;;;3.58;1.80;;;;;;;;;;4996176;28;20096;-74
2023/08/10 07:56:52;;;;;;;4.57;1.90;;;;;;;;;;5019536;28;20041;-76
2023/08/10 07:59:18;;;;;;;3.05;1.98;;;;;;;;;;5018690;28;20394;-79
2023/08/10 08:01:44;;;;;;;8.43;2.72;;;;;;;;;;5009499;28;20466;-79
2023/08/10 08:04:10;;;;;;;3.33;1.45;;;;;;;;;;5027947;28;20029;-81
2023/08/10 08:06:36;;;;;;;2.58;1.30;;;;;;;;;;4991663;28;20037;-76
2023/08/10 08:09:06;;;;;;;3.97;1.25;;;;;;;;;;5009469;28;20083;-78
2023/08/10 08:11:32;;;;;;;5.55;1.70;;;;;;;;;;4995281;28;20053;-76
2023/08/10 08:13:59;;;;;;;9.18;1.70;;;;;;;;;;4999601;28;20061;-77
2023/08/10 08:16:25;;;;;;;1.75;1.02;;;;;;;;;;5004417;28;20034;-76
2023/08/10 08:18:55;;;;;;;3.80;1.00;;;;;;;;;;5003528;28;20038;-76
2023/08/10 08:21:28;;;;;;;2.28;1.13;;;;;;;;;;5019897;28;20095;-75
2023/08/10 08:23:55;;;;;;;1.35;0.80;;;;;;;;;;5008790;28;20033;-75
2023/08/10 08:26:28;;;;;;;1.05;0.80;;;;;;;;;;5009986;28;20030;-75
2023/08/10 08:28:57;;;;;;;1.58;0.80;;;;;;;;;;5023819;28;20029;-76
2023/08/10 08:31:23;;;;;;;1.77;0.80;;;;;;;;;;5012309;28;20447;-74
2023/08/10 08:33:49;;;;;;;9.27;2.00;;;;;;;;;;5003066;28;20064;-74
2023/08/10 08:36:14;;;;;;;6.03;2.33;;;;;;;;;;5026756;28;20061;-74
2023/08/10 08:38:41;;;;;;;1.85;0.85;;;;;;;;;;5005701;28;20049;-74
2023/08/10 08:41:08;;;;;;;1.98;0.80;;;;;;;;;;5001295;28;20030;-76
2023/08/10 08:43:36;;;;;;;1.60;0.95;;;;;;;;;;5031221;28;20032;-75
2023/08/10 08:46:03;;;;;;;12.77;2.10;;;;;;;;;;4991338;28;20087;-75
2023/08/10 08:48:29;;;;;;;3.17;0.90;;;;;;;;;;4999932;28;20026;-77
2023/08/10 08:50:56;;;;;;;1.25;0.90;;;;;;;;;;5004673;28;20088;-75
2023/08/10 08:53:22;;;;;;;2.88;1.10;;;;;;;;;;4998197;28;20026;-79
2023/08/10 08:55:48;;;;;;;3.92;1.17;;;;;;;;;;5013966;28;20033;-76
2023/08/10 08:58:17;;;;;;;1.77;0.70;;;;;;;;;;5003178;28;21306;-76
2023/08/10 09:00:48;;;;;;;3.58;1.25;;;;;;;;;;5002266;28;20033;-76
2023/08/10 09:03:16;;;;;;;;;;;;;;;;;;5004899;28;20057;-76
2023/08/10 09:05:45;;;;;;;2.17;1.38;;;;;;;;;;5003370;28;19940;-76
2023/08/10 09:08:17;;;;;;;3.65;1.50;;;;;;;;;;5005325;28;20071;-73
2023/08/10 09:10:45;;;;;;;2.60;0.70;;;;;;;;;;5004522;28;20022;-74
2023/08/10 09:13:23;;;;;;;4.40;0.98;;;;;;;;;;5008147;28;20033;-76
2023/08/10 09:16:06;;;;;;;3.78;0.82;;;;;;;;;;5007949;28;20060;-75
2023/08/10 09:18:37;;;;;;;2.80;0.65;;;;;;;;;;4990124;28;20026;-76
2023/08/10 09:21:07;;;;;;;4.97;1.25;;;;;;;;;;5014618;28;20046;-75
2023/08/10 09:23:35;;;;;;;1.30;0.90;;;;;;;;;;4989604;28;20135;-75
2023/08/10 09:26:07;;;;;;;6.55;1.13;;;;;;;;;;5003041;28;20064;-75
2023/08/10 09:28:36;;;;;;;3.05;1.00;;;;;;;;;;5024023;28;20037;-76
2023/08/10 09:31:02;;;;;;;2.67;1.20;;;;;;;;;;4987586;28;20034;-74
2023/08/10 09:33:35;;;;;;;1.08;0.85;;;;;;;;;;5026117;28;20394;-73
2023/08/10 09:36:08;;;;;;;3.72;0.90;;;;;;;;;;5030767;28;20144;-76
2023/08/10 09:38:35;;;;;;;3.20;1.05;;;;;;;;;;5010572;28;20091;-74
2023/08/10 09:41:14;;;;;;;1.75;1.10;;;;;;;;;;5007149;28;20071;-75
2023/08/10 09:43:43;;;;;;;3.47;1.30;;;;;;;;;;5012178;28;20030;-76
2023/08/10 09:46:12;;;;;;;2.30;1.17;;;;;;;;;;5010657;28;20056;-73
2023/08/10 09:48:42;;;;;;;1.92;0.90;;;;;;;;;;5004450;28;20057;-74
2023/08/10 09:51:09;;;;;;;2.25;0.93;;;;;;;;;;5003643;28;20765;-74
2023/08/10 09:53:36;;;;;;;1.33;0.98;;;;;;;;;;5010003;28;20623;-76
2023/08/10 09:56:02;;;;;;;1.23;0.60;;;;;;;;;;5008560;28;20572;-75
2023/08/10 09:58:31;;;;;;;0.70;0.60;;;;;;;;;;5013064;28;20498;-74
2023/08/10 10:00:56;;;;;;;2.28;0.85;;;;;;;;;;5005608;28;20687;-77
2023/08/10 10:03:29;;;;;;;2.90;1.42;;;;;;;;;;5004478;28;20111;-75
2023/08/10 10:05:57;;;;;;;2.50;1.30;;;;;;;;;;5004527;28;20037;-77
2023/08/10 10:08:24;;;;;;;3.65;2.15;;;;;;;;;;5003769;28;20132;-76
2023/08/10 10:10:50;;;;;;;4.65;1.20;;;;;;;;;;5010170;28;20040;-75
2023/08/10 10:13:16;;;;;;;1.38;0.90;;;;;;;;;;5012516;28;20105;-75
2023/08/10 10:15:43;;;;;;;5.00;1.38;;;;;;;;;;5003146;28;20072;-75
2023/08/10 10:18:09;;;;;;;1.38;0.95;;;;;;;;;;5007171;28;20030;-76
2023/08/10 10:20:39;;;;;;;3.30;1.17;;;;;;;;;;5011732;28;20037;-76
2023/08/10 10:23:10;;;;;;;6.45;1.05;;;;;;;;;;4992437;28;20453;-76
2023/08/10 10:25:38;;;;;;;1.40;1.10;;;;;;;;;;5008189;28;20061;-75
2023/08/10 10:28:16;;;;;;;1.65;0.90;;;;;;;;;;5020629;28;20079;-77
2023/08/10 10:30:56;;;;;;;1.10;0.57;;;;;;;;;;5014290;28;20040;-75
2023/08/10 10:33:25;;;;;;;1.20;0.90;;;;;;;;;;5014732;28;20033;-75
2023/08/10 10:36:07;;;;;;;1.50;0.65;;;;;;;;;;5008048;28;20282;-76
2023/08/10 10:38:33;;;;;;;3.45;0.90;;;;;;;;;;5010380;28;20148;-79
2023/08/10 10:41:30;;;;;;;2.17;0.60;;;;;;;;;;5003894;28;20026;-76
2023/08/10 10:43:57;;;;;;;2.20;0.68;;;;;;;;;;5000033;28;20054;-75
2023/08/10 10:46:36;;;;;;;2.33;0.85;;;;;;;;;;5005592;28;20506;-76
2023/08/10 10:49:13;;;;;;;2.45;0.90;;;;;;;;;;5007059;28;20041;-76
2023/08/10 10:51:52;;;;;;;1.58;1.02;;;;;;;;;;5001181;28;20060;-76
2023/08/10 10:54:19;;;;;;;1.40;1.00;;;;;;;;;;5002352;28;20060;-76
2023/08/10 10:56:46;;;;;;;2.88;0.90;;;;;;;;;;5013862;28;20594;-77
2023/08/10 10:59:15;;;;;;;2.63;1.00;;;;;;;;;;5004969;28;20028;-77
2023/08/10 11:01:40;;;;;;;1.58;0.90;;;;;;;;;;5017048;28;20056;-75
2023/08/10 11:04:07;;;;;;;1.67;0.70;;;;;;;;;;5025656;28;20068;-76
2023/08/10 11:06:37;;;;;;;2.95;0.70;;;;;;;;;;5028539;28;20080;-75
2023/08/10 11:09:07;;;;;;;2.83;0.90;;;;;;;;;;5007867;28;20022;-76
2023/08/10 11:11:33;;;;;;;1.50;0.90;;;;;;;;;;5026056;28;20083;-75
2023/08/10 11:13:59;;;;;;;1.80;0.98;;;;;;;;;;5008338;28;20475;-73
2023/08/10 11:16:25;;;;;;;1.77;0.88;;;;;;;;;;5022797;28;20138;-76
2023/08/10 11:18:53;;;;;;;2.17;0.95;;;;;;;;;;5012576;28;20084;-75
2023/08/10 11:21:22;;;;;;;3.10;0.98;;;;;;;;;;5019165;28;20033;-76
2023/08/10 11:23:48;;;;;;;3.90;1.20;;;;;;;;;;5003105;28;20520;-76
2023/08/10 11:26:16;;;;;;;1.30;1.05;;;;;;;;;;5008008;28;20029;-75
2023/08/10 11:28:42;;;;;;;1.75;0.88;;;;;;;;;;5014673;28;20117;-75
2023/08/10 11:31:08;;;;;;;1.08;0.90;;;;;;;;;;5014616;28;20112;-76
2023/08/10 11:33:34;;;;;;;3.33;0.80;;;;;;;;;;5010000;28;20187;-75
2023/08/10 11:36:00;;;;;;;1.80;0.80;;;;;;;;;;5007721;28;20088;-75
2023/08/10 11:38:26;;;;;;;5.25;1.02;;;;;;;;;;5006558;28;20026;-74
2023/08/10 11:40:57;;;;;;;6.47;1.30;;;;;;;;;;5008355;28;20471;-74
2023/08/10 11:43:25;;;;;;;7.50;1.40;;;;;;;;;;4998913;28;20592;-75
2023/08/10 11:45:53;;;;;;;31.88;1.77;;;;;;;;;;5008000;28;20041;-76
2023/08/10 11:48:26;;;;;;;3.05;0.95;;;;;;;;;;5009822;28;20100;-75
2023/08/10 11:50:59;;;;;;;2.55;1.10;;;;;;;;;;5005784;28;20088;-75
2023/08/10 11:53:32;;;;;;;1.25;0.70;;;;;;;;;;5006511;28;20026;-78
2023/08/10 11:55:59;;;;;;;1.48;0.88;;;;;;;;;;5008074;28;20021;-77
2023/08/10 11:58:32;;;;;;;2.20;0.88;;;;;;;;;;5006285;28;20601;-75
2023/08/10 12:01:02;;;;;;;1.73;1.10;;;;;;;;;;4988153;28;20097;-75
2023/08/10 12:03:31;;;;;;;1.38;0.73;;;;;;;;;;5007513;28;20037;-76
2023/08/10 12:06:04;;;;;;;1.77;0.95;;;;;;;;;;5000683;28;20390;-76
2023/08/10 12:08:32;;;;;;;1.65;0.82;;;;;;;;;;5008376;28;20033;-74
2023/08/10 12:11:08;;;;;;;1.35;1.02;;;;;;;;;;5008329;28;20382;-75
2023/08/10 12:13:48;;;;;;;1.70;0.93;;;;;;;;;;5009373;28;20075;-76
2023/08/10 12:16:16;;;;;;;5.90;1.10;;;;;;;;;;4999542;28;20034;-74
2023/08/10 12:18:42;;;;;;;1.70;1.05;;;;;;;;;;5020898;28;20054;-75
2023/08/10 12:21:07;;;;;;;4.03;1.15;;;;;;;;;;4998227;28;20540;-75
2023/08/10 12:23:33;;;;;;;2.75;0.93;;;;;;;;;;5005172;28;20037;-76
2023/08/10 12:25:59;;;;;;;1.75;0.80;;;;;;;;;;5004108;28;20041;-74
2023/08/10 12:28:25;;;;;;;1.95;0.93;;;;;;;;;;5011139;28;20040;-74
2023/08/10 12:30:54;;;;;;;4.32;1.38;;;;;;;;;;5024268;28;20034;-75
2023/08/10 12:33:21;;;;;;;1.60;0.90;;;;;;;;;;5001430;28;20050;-75
2023/08/10 12:35:46;;;;;;;0.93;0.82;;;;;;;;;;4998940;28;20057;-75
2023/08/10 12:38:12;;;;;;;2.15;1.00;;;;;;;;;;4991680;28;20092;-73
2023/08/10 12:40:39;;;;;;;8.43;1.65;;;;;;;;;;4999831;28;20482;-73
2023/08/10 12:43:05;;;;;;;3.22;1.13;;;;;;;;;;5017598;28;20026;-76
2023/08/10 12:45:32;;;;;;;2.45;0.85;;;;;;;;;;5010994;28;20033;-75
2023/08/10 12:47:59;;;;;;;1.98;1.20;;;;;;;;;;5014806;28;20166;-74
2023/08/10 12:50:25;;;;;;;2.47;1.13;;;;;;;;;;5014920;28;20120;-74
2023/08/10 12:52:51;;;;;;;7.15;1.52;;;;;;;;;;5008753;28;20132;-76
2023/08/10 12:55:17;;;;;;;1.55;0.80;;;;;;;;;;5002789;28;20029;-77
2023/08/10 12:57:43;;;;;;;1.70;0.77;;;;;;;;;;4999312;28;20037;-75
2023/08/10 13:00:16;;;;;;;6.93;1.20;;;;;;;;;;5018501;28;20361;-77
2023/08/10 13:02:43;;;;;;;8.57;1.35;;;;;;;;;;5008190;28;20358;-76
2023/08/10 13:05:09;;;;;;;1.33;0.95;;;;;;;;;;4993775;28;20471;-78
2023/08/10 13:07:36;;;;;;;4.90;1.50;;;;;;;;;;5020341;28;20540;-76
2023/08/10 13:10:05;;;;;;;3.08;1.40;;;;;;;;;;5001939;28;20399;-78
2023/08/10 13:12:31;;;;;;;5.68;1.60;;;;;;;;;;5008286;28;20033;-76
2023/08/10 13:14:57;;;;;;;8.75;1.00;;;;;;;;;;5020876;28;20645;-77
2023/08/10 13:17:25;;;;;;;2.83;1.10;;;;;;;;;;5015841;28;20030;-76
2023/08/10 13:19:51;;;;;;;3.38;0.90;;;;;;;;;;5019201;28;20611;-76
2023/08/10 13:22:17;;;;;;;6.90;2.78;;;;;;;;;;5020543;28;20044;-76
2023/08/10 13:24:43;;;;;;;2.45;1.00;;;;;;;;;;5013237;28;20077;-76
2023/08/10 13:27:08;;;;;;;1.85;0.80;;;;;;;;;;5011902;28;20116;-77
2023/08/10 13:29:34;;;;;;;3.22;0.98;;;;;;;;;;5035096;28;20125;-77
2023/08/10 13:32:00;;;;;;;2.17;0.82;;;;;;;;;;5019183;28;20046;-77
2023/08/10 13:34:26;;;;;;;2.42;1.15;;;;;;;;;;4992490;28;20068;-76
2023/08/10 13:36:52;;;;;;;3.33;0.90;;;;;;;;;;5015896;28;20467;-76
2023/08/10 13:39:19;;;;;;;8.95;1.70;;;;;;;;;;5012236;28;20061;-77
2023/08/10 13:41:44;;;;;;;2.85;1.33;;;;;;;;;;5025864;28;20029;-77
2023/08/10 13:44:10;;;;;;;8.85;1.70;;;;;;;;;;5028413;28;20762;-76
2023/08/10 13:46:36;;;;;;;2.15;0.90;;;;;;;;;;5042205;28;20030;-77
2023/08/10 13:49:01;;;;;;;2.45;1.20;;;;;;;;;;5020683;28;20033;-76
2023/08/10 13:51:27;;;;;;;3.00;1.67;;;;;;;;;;5024775;28;20151;-76
2023/08/10 13:53:53;;;;;;;1.50;1.02;;;;;;;;;;5023175;28;20037;-76
2023/08/10 13:56:19;;;;;;;1.45;1.02;;;;;;;;;;5045969;28;20033;-75
2023/08/10 13:58:44;;;;;;;1.35;1.10;;;;;;;;;;5012161;28;20026;-77
2023/08/10 14:01:10;;;;;;;4.90;1.70;;;;;;;;;;5033660;28;20034;-76
2023/08/10 14:03:38;;;;;;;2.80;1.00;;;;;;;;;;5015088;28;20095;-76
2023/08/10 14:06:06;;;;;;;4.90;1.65;;;;;;;;;;5029763;28;20119;-79
2023/08/10 14:08:32;;;;;;;1.98;1.10;;;;;;;;;;5006569;28;20041;-76
2023/08/10 14:10:57;;;;;;;5.25;1.17;;;;;;;;;;5024109;28;20026;-75
2023/08/10 14:13:23;;;;;;;5.35;1.58;;;;;;;;;;5023756;28;20549;-76
2023/08/10 14:15:49;;;;;;;1.40;0.93;;;;;;;;;;5020827;28;20540;-77
2023/08/10 14:18:15;;;;;;;2.88;1.00;;;;;;;;;;5022987;28;20053;-77
2023/08/10 14:20:41;;;;;;;4.70;1.60;;;;;;;;;;5026569;28;20539;-77
2023/08/10 14:23:07;;;;;;;5.85;1.65;;;;;;;;;;5027587;28;20033;-77
2023/08/10 14:25:33;;;;;;;3.35;1.20;;;;;;;;;;5029479;28;20406;-77
2023/08/10 14:27:59;;;;;;;1.38;0.85;;;;;;;;;;5027943;28;20033;-76
2023/08/10 14:30:25;;;;;;;5.45;1.38;;;;;;;;;;5021742;28;20048;-77
2023/08/10 14:32:53;;;;;;;2.22;1.10;;;;;;;;;;5005764;28;20034;-76
2023/08/10 14:35:19;;;;;;;2.72;1.50;;;;;;;;;;5015080;28;20072;-77
2023/08/10 14:37:44;;;;;;;3.25;1.15;;;;;;;;;;5021131;28;20124;-75
2023/08/10 14:40:11;;;;;;;3.38;1.13;;;;;;;;;;5015737;28;20034;-76
2023/08/10 14:42:37;;;;;;;7.20;3.03;;;;;;;;;;5043251;28;20052;-77
2023/08/10 14:45:03;;;;;;;1.88;0.85;;;;;;;;;;5000688;28;20013;-76